createdAt,value
2018-01-22T00:04:47.435Z,13.43
2018-01-22T00:09:48.816Z,12.67
2018-01-22T00:14:50.178Z,12.00
2018-01-22T00:19:51.519Z,12.83
2018-01-22T00:24:52.875Z,13.23
2018-01-22T00:29:54.200Z,12.60
2018-01-22T00:34:56.290Z,13.90
2018-01-22T00:39:57.619Z,12.83
2018-01-22T00:44:59.744Z,12.80
2018-01-22T00:50:01.079Z,11.87
2018-01-22T00:55:02.402Z,12.97
2018-01-22T01:00:04.528Z,18.10
2018-01-22T01:05:05.851Z,12.23
2018-01-22T01:10:07.167Z,12.87
2018-01-22T01:15:08.577Z,13.30
2018-01-22T01:20:09.951Z,12.20
2018-01-22T01:25:11.331Z,13.10
2018-01-22T01:30:12.657Z,11.30
2018-01-22T01:35:14.000Z,12.53
2018-01-22T01:40:15.355Z,11.70
2018-01-22T01:45:16.711Z,12.83
2018-01-22T01:50:18.872Z,11.57
2018-01-22T01:55:20.293Z,11.43
2018-01-22T02:00:21.663Z,11.60
2018-01-22T02:05:22.985Z,12.40
2018-01-22T02:10:24.273Z,12.27
2018-01-22T02:15:26.326Z,12.13
2018-01-22T02:20:27.707Z,12.00
2018-01-22T02:25:29.055Z,11.70
2018-01-22T02:30:30.372Z,11.53
2018-01-22T02:35:31.702Z,10.97
2018-01-22T02:40:32.990Z,11.53
2018-01-22T02:45:34.314Z,10.37
2018-01-22T02:50:36.395Z,10.77
2018-01-22T02:55:37.766Z,10.37
2018-01-22T03:00:39.092Z,9.90
2018-01-22T03:05:40.420Z,9.57
2018-01-22T03:10:41.748Z,10.20
2018-01-22T03:15:43.063Z,8.57
2018-01-22T03:20:44.421Z,8.73
2018-01-22T03:25:45.758Z,8.47
2018-01-22T03:30:47.849Z,9.23
2018-01-22T03:35:49.895Z,9.30
2018-01-22T03:40:51.918Z,9.47
2018-01-22T03:45:53.873Z,8.70
2018-01-22T03:50:55.275Z,7.77
2018-01-22T03:55:57.335Z,7.20
2018-01-22T04:00:58.670Z,7.30
2018-01-22T04:06:00.715Z,7.67
2018-01-22T04:11:02.076Z,7.07
2018-01-22T04:16:03.387Z,6.63
2018-01-22T04:21:04.711Z,5.67
2018-01-22T04:26:06.027Z,6.43
2018-01-22T04:31:08.136Z,5.93
2018-01-22T04:36:10.231Z,5.40
2018-01-22T04:41:11.575Z,5.03
2018-01-22T04:46:12.906Z,5.73
2018-01-22T04:51:14.215Z,5.53
2018-01-22T04:56:16.255Z,5.03
2018-01-22T05:01:17.587Z,4.57
2018-01-22T05:06:18.930Z,4.37
2018-01-22T05:11:20.247Z,4.50
2018-01-22T05:16:21.591Z,4.70
2018-01-22T05:21:22.919Z,4.93
2018-01-22T05:26:24.247Z,5.67
2018-01-22T05:31:25.592Z,4.87
2018-01-22T05:36:26.899Z,5.70
2018-01-22T05:41:28.211Z,6.07
2018-01-22T05:46:29.535Z,5.57
2018-01-22T05:51:30.911Z,6.30
2018-01-22T05:56:32.219Z,5.50
2018-01-22T06:01:33.552Z,5.60
2018-01-22T06:06:34.895Z,5.40
2018-01-22T06:11:36.251Z,5.00
2018-01-22T06:16:38.319Z,5.27
2018-01-22T06:21:39.668Z,5.90
2018-01-22T06:26:41.116Z,6.23
2018-01-22T06:31:42.467Z,6.00
2018-01-22T06:36:43.786Z,5.80
2018-01-22T06:41:45.144Z,5.70
2018-01-22T06:46:46.451Z,8.23
2018-01-22T06:51:47.756Z,4.93
2018-01-22T06:56:49.095Z,5.70
2018-01-22T07:01:50.403Z,5.50
2018-01-22T07:06:51.743Z,5.20
2018-01-22T07:11:53.055Z,4.70
2018-01-22T07:16:55.162Z,5.07
2018-01-22T07:21:57.240Z,4.60
2018-01-22T07:26:58.556Z,4.87
2018-01-22T07:32:00.718Z,4.27
2018-01-22T07:37:02.086Z,4.90
2018-01-22T07:42:03.463Z,4.87
2018-01-22T07:47:04.867Z,5.40
2018-01-22T07:52:06.252Z,4.37
2018-01-22T07:57:07.551Z,5.60
2018-01-22T08:02:08.898Z,5.37
2018-01-22T08:07:10.978Z,5.50
2018-01-22T08:12:12.373Z,6.03
2018-01-22T08:17:13.721Z,4.80
2018-01-22T08:22:15.077Z,4.87
2018-01-22T08:27:17.131Z,4.93
2018-01-22T08:32:18.456Z,5.60
2018-01-22T08:37:19.774Z,5.27
2018-01-22T08:42:21.911Z,5.40
2018-01-22T08:47:23.214Z,5.40
2018-01-22T08:52:24.543Z,5.63
2018-01-22T08:57:26.624Z,4.37
2018-01-22T09:02:27.970Z,4.80
2018-01-22T09:07:29.336Z,5.70
2018-01-22T09:12:30.664Z,5.20
2018-01-22T09:17:32.009Z,4.80
2018-01-22T09:22:33.358Z,4.50
2018-01-22T09:27:34.719Z,5.53
2018-01-22T09:32:36.023Z,4.87
2018-01-22T09:37:37.387Z,4.70
2018-01-22T09:42:39.477Z,4.67
2018-01-22T09:47:41.530Z,4.27
2018-01-22T09:52:42.868Z,4.27
2018-01-22T09:57:44.947Z,3.90
2018-01-22T10:02:46.294Z,4.07
2018-01-22T10:07:47.644Z,3.53
2018-01-22T10:12:48.985Z,4.30
2018-01-22T10:17:50.335Z,4.40
2018-01-22T10:22:52.409Z,3.80
2018-01-22T10:27:53.712Z,3.63
2018-01-22T10:32:55.047Z,4.40
2018-01-22T10:37:56.395Z,4.33
2018-01-22T10:42:57.736Z,4.00
2018-01-22T10:47:59.068Z,4.10
2018-01-22T10:53:00.387Z,4.20
2018-01-22T10:58:02.476Z,3.80
2018-01-22T11:03:03.800Z,4.10
2018-01-22T11:08:05.990Z,4.00
2018-01-22T11:13:08.053Z,3.57
2018-01-22T11:18:09.366Z,4.20
2018-01-22T11:23:10.692Z,4.43
2018-01-22T11:28:12.028Z,3.73
2018-01-22T11:33:13.377Z,5.00
2018-01-22T11:38:14.727Z,4.07
2018-01-22T11:43:16.057Z,4.30
2018-01-22T11:48:17.392Z,4.63
2018-01-22T11:53:18.747Z,4.63
2018-01-22T11:58:20.120Z,4.40
2018-01-22T12:03:21.478Z,4.80
2018-01-22T12:08:22.859Z,5.00
2018-01-22T12:13:24.225Z,5.67
2018-01-22T12:18:25.546Z,8.87
2018-01-22T12:23:26.938Z,6.50
2018-01-22T12:28:28.284Z,6.10
2018-01-22T12:33:29.587Z,5.50
2018-01-22T12:38:30.940Z,5.90
2018-01-22T12:43:32.235Z,5.70
2018-01-22T12:48:33.567Z,5.80
2018-01-22T12:53:34.904Z,5.70
2018-01-22T12:58:36.252Z,5.87
2018-01-22T13:03:37.579Z,6.47
2018-01-22T13:08:38.923Z,7.67
2018-01-22T13:13:40.251Z,8.27
2018-01-22T13:18:41.582Z,8.33
2018-01-22T13:23:42.932Z,10.00
2018-01-22T13:28:44.996Z,11.03
2018-01-22T13:33:46.357Z,10.80
2018-01-22T13:38:47.676Z,11.00
2018-01-22T13:43:49.013Z,12.30
2018-01-22T13:48:50.357Z,11.40
2018-01-22T13:53:51.765Z,11.90
2018-01-22T13:58:53.808Z,13.60
2018-01-22T14:03:55.252Z,13.43
2018-01-22T14:08:56.698Z,12.10
2018-01-22T14:13:58.011Z,12.17
2018-01-22T14:18:59.335Z,11.80
2018-01-22T14:24:01.425Z,11.80
2018-01-22T14:29:02.806Z,12.63
2018-01-22T14:34:04.163Z,12.17
2018-01-22T14:39:05.524Z,12.27
2018-01-22T14:44:06.848Z,12.90
2018-01-22T14:49:08.147Z,13.17
2018-01-22T14:54:09.490Z,11.77
2018-01-22T14:59:11.555Z,10.93
2018-01-22T15:04:12.883Z,11.20
2018-01-22T15:09:14.987Z,10.30
2018-01-22T15:14:17.048Z,11.07
2018-01-22T15:19:18.376Z,11.10
2018-01-22T15:24:20.474Z,12.03
2018-01-22T15:29:21.791Z,10.67
2018-01-22T15:34:23.871Z,12.30
2018-01-22T15:39:25.208Z,11.30
2018-01-22T15:44:26.560Z,12.20
2018-01-22T15:49:28.607Z,13.10
2018-01-22T15:54:29.971Z,14.10
2018-01-22T15:59:32.027Z,13.60
2018-01-22T16:04:33.359Z,14.20
2018-01-22T16:09:35.452Z,13.23
2018-01-22T16:14:36.770Z,14.53
2018-01-22T16:19:38.095Z,14.67
2018-01-22T16:24:39.423Z,13.37
2018-01-22T16:29:40.740Z,15.40
2018-01-22T16:34:42.118Z,14.40
2018-01-22T16:39:44.199Z,13.83
2018-01-22T16:44:45.574Z,14.83
2018-01-22T16:49:46.898Z,13.17
2018-01-22T16:54:48.988Z,13.10
2018-01-22T16:59:50.303Z,14.07
2018-01-22T17:04:52.359Z,15.77
2018-01-22T17:09:53.707Z,15.20
2018-01-22T17:14:55.031Z,16.30
2018-01-22T17:19:56.346Z,16.73
2018-01-22T17:24:57.753Z,16.47
2018-01-22T17:30:00.543Z,14.73
2018-01-22T17:35:01.978Z,15.10
2018-01-22T17:40:04.150Z,14.10
2018-01-22T17:45:05.602Z,13.67
2018-01-22T17:50:06.950Z,18.17
2018-01-22T17:55:08.294Z,23.27
2018-01-22T18:00:09.640Z,13.73
2018-01-22T18:05:11.720Z,14.20
2018-01-22T18:10:13.056Z,14.03
2018-01-22T18:15:14.366Z,19.67
2018-01-22T18:20:15.735Z,18.97
2018-01-22T18:25:17.194Z,14.57
2018-01-22T18:30:18.506Z,17.27
2018-01-22T18:35:20.913Z,14.60
2018-01-22T18:40:22.278Z,15.17
2018-01-22T18:45:23.630Z,14.80
2018-01-22T18:50:24.967Z,17.13
2018-01-22T18:55:26.375Z,15.30
2018-01-22T19:00:28.496Z,15.03
2018-01-22T19:05:29.862Z,14.80
2018-01-22T19:10:31.364Z,15.43
2018-01-22T19:15:34.683Z,15.27
2018-01-22T19:20:36.360Z,14.13
2018-01-22T19:25:38.980Z,15.93
2018-01-22T19:30:40.315Z,15.60
2018-01-22T19:35:42.248Z,15.23
2018-01-22T19:40:43.623Z,14.10
2018-01-22T19:45:44.980Z,14.60
2018-01-22T19:50:46.868Z,17.93
2018-01-22T19:55:48.302Z,17.17
2018-01-22T20:00:49.794Z,16.50
2018-01-22T20:05:51.167Z,16.00
2018-01-22T20:10:53.252Z,15.70
2018-01-22T20:15:54.695Z,14.90
2018-01-22T20:20:56.022Z,15.00
2018-01-22T20:25:58.410Z,15.90
2018-01-22T20:30:59.856Z,13.70
2018-01-22T20:36:01.963Z,15.00
2018-01-22T20:41:04.392Z,14.30
2018-01-22T20:46:06.469Z,15.00
2018-01-22T20:51:07.820Z,15.00
2018-01-22T20:56:09.161Z,14.67
2018-01-22T21:01:10.564Z,15.67
2018-01-22T21:06:12.986Z,16.00
2018-01-22T21:11:14.408Z,14.00
2018-01-22T21:16:16.685Z,16.23
2018-01-22T21:21:18.784Z,15.30
2018-01-22T21:26:20.935Z,14.90
2018-01-22T21:31:22.361Z,14.00
2018-01-22T21:36:23.948Z,14.27
2018-01-22T21:41:25.524Z,15.03
2018-01-22T21:46:26.949Z,16.20
2018-01-22T21:51:28.374Z,14.93
2018-01-22T21:56:31.263Z,14.60
2018-01-22T22:01:32.701Z,13.63
2018-01-22T22:06:34.058Z,15.10
2018-01-22T22:11:35.355Z,15.10
2018-01-22T22:16:36.676Z,17.03
2018-01-22T22:21:38.088Z,15.03
2018-01-22T22:26:39.666Z,15.57
2018-01-22T22:31:40.992Z,15.80
2018-01-22T22:36:42.374Z,15.83
2018-01-22T22:41:43.731Z,15.27
2018-01-22T22:46:45.094Z,15.20
2018-01-22T22:51:47.151Z,15.63
2018-01-22T22:56:49.307Z,15.10
2018-01-22T23:01:50.731Z,15.50
2018-01-22T23:06:52.185Z,15.90
2018-01-22T23:11:53.572Z,14.37
2018-01-22T23:16:55.825Z,14.23
2018-01-22T23:21:57.146Z,17.47
2018-01-22T23:26:58.441Z,16.00
2018-01-22T23:31:59.752Z,15.43
2018-01-22T23:37:01.072Z,16.03
2018-01-22T23:42:02.559Z,16.53
2018-01-22T23:47:03.971Z,17.90
2018-01-22T23:52:05.283Z,15.67
2018-01-22T23:57:06.654Z,15.93
